sensor_id;sensor_type;location;lat;lon;timestamp;P1;durP1;ratioP1;P2;durP2;ratioP2
20124;SDS011;10223;50.862;4.360;2023-10-09T00:02:05;13.68;;;6.95;;
20124;SDS011;10223;50.862;4.360;2023-10-09T00:04:34;11.55;;;6.38;;
20124;SDS011;10223;50.862;4.360;2023-10-09T00:07:06;14.90;;;6.35;;
20124;SDS011;10223;50.862;4.360;2023-10-09T00:09:33;13.10;;;6.35;;
20124;SDS011;10223;50.862;4.360;2023-10-09T00:12:12;12.80;;;6.72;;
20124;SDS011;10223;50.862;4.360;2023-10-09T00:14:47;12.40;;;7.20;;
20124;SDS011;10223;50.862;4.360;2023-10-09T00:17:15;12.13;;;6.18;;
20124;SDS011;10223;50.862;4.360;2023-10-09T00:19:47;13.90;;;7.15;;
20124;SDS011;10223;50.862;4.360;2023-10-09T00:22:16;12.00;;;6.28;;
20124;SDS011;10223;50.862;4.360;2023-10-09T00:24:55;14.23;;;7.03;;
20124;SDS011;10223;50.862;4.360;2023-10-09T00:27:39;14.00;;;6.57;;
20124;SDS011;10223;50.862;4.360;2023-10-09T00:30:08;17.92;;;7.30;;
20124;SDS011;10223;50.862;4.360;2023-10-09T00:32:40;17.08;;;6.35;;
20124;SDS011;10223;50.862;4.360;2023-10-09T00:35:10;15.00;;;7.28;;
20124;SDS011;10223;50.862;4.360;2023-10-09T00:37:51;14.65;;;7.25;;
20124;SDS011;10223;50.862;4.360;2023-10-09T00:40:29;12.32;;;6.47;;
20124;SDS011;10223;50.862;4.360;2023-10-09T00:43:01;16.45;;;7.47;;
20124;SDS011;10223;50.862;4.360;2023-10-09T00:45:31;13.00;;;6.80;;
20124;SDS011;10223;50.862;4.360;2023-10-09T00:48:04;13.18;;;6.88;;
20124;SDS011;10223;50.862;4.360;2023-10-09T00:50:33;14.90;;;6.97;;
20124;SDS011;10223;50.862;4.360;2023-10-09T00:53:04;16.55;;;7.38;;
20124;SDS011;10223;50.862;4.360;2023-10-09T00:55:37;11.18;;;6.55;;
20124;SDS011;10223;50.862;4.360;2023-10-09T00:58:13;13.48;;;7.30;;
20124;SDS011;10223;50.862;4.360;2023-10-09T01:00:48;13.70;;;7.15;;
20124;SDS011;10223;50.862;4.360;2023-10-09T01:03:18;16.27;;;7.80;;
20124;SDS011;10223;50.862;4.360;2023-10-09T01:05:53;15.23;;;7.68;;
20124;SDS011;10223;50.862;4.360;2023-10-09T01:08:23;14.15;;;7.28;;
20124;SDS011;10223;50.862;4.360;2023-10-09T01:11:10;14.07;;;7.43;;
20124;SDS011;10223;50.862;4.360;2023-10-09T01:13:45;15.88;;;7.72;;
20124;SDS011;10223;50.862;4.360;2023-10-09T01:16:19;18.77;;;7.53;;
20124;SDS011;10223;50.862;4.360;2023-10-09T01:18:48;12.88;;;7.07;;
20124;SDS011;10223;50.862;4.360;2023-10-09T01:21:16;16.73;;;7.32;;
20124;SDS011;10223;50.862;4.360;2023-10-09T01:23:45;12.02;;;7.35;;
20124;SDS011;10223;50.862;4.360;2023-10-09T01:26:28;16.53;;;8.27;;
20124;SDS011;10223;50.862;4.360;2023-10-09T01:28:57;17.88;;;7.97;;
20124;SDS011;10223;50.862;4.360;2023-10-09T01:31:25;10.88;;;6.32;;
20124;SDS011;10223;50.862;4.360;2023-10-09T01:34:02;15.82;;;7.90;;
20124;SDS011;10223;50.862;4.360;2023-10-09T01:36:34;12.53;;;7.30;;
20124;SDS011;10223;50.862;4.360;2023-10-09T01:39:05;13.27;;;7.88;;
20124;SDS011;10223;50.862;4.360;2023-10-09T01:41:35;14.97;;;7.53;;
20124;SDS011;10223;50.862;4.360;2023-10-09T01:44:11;12.57;;;7.30;;
20124;SDS011;10223;50.862;4.360;2023-10-09T01:46:41;20.67;;;7.40;;
20124;SDS011;10223;50.862;4.360;2023-10-09T01:49:08;13.27;;;7.17;;
20124;SDS011;10223;50.862;4.360;2023-10-09T01:51:42;14.65;;;6.75;;
20124;SDS011;10223;50.862;4.360;2023-10-09T01:54:10;14.37;;;6.70;;
20124;SDS011;10223;50.862;4.360;2023-10-09T01:56:57;14.47;;;7.30;;
20124;SDS011;10223;50.862;4.360;2023-10-09T01:59:30;14.27;;;7.20;;
20124;SDS011;10223;50.862;4.360;2023-10-09T02:01:57;17.97;;;7.77;;
20124;SDS011;10223;50.862;4.360;2023-10-09T02:04:31;14.53;;;7.53;;
20124;SDS011;10223;50.862;4.360;2023-10-09T02:06:58;12.75;;;7.75;;
20124;SDS011;10223;50.862;4.360;2023-10-09T02:09:33;18.40;;;8.52;;
20124;SDS011;10223;50.862;4.360;2023-10-09T02:12:00;15.70;;;7.83;;
20124;SDS011;10223;50.862;4.360;2023-10-09T02:14:27;16.73;;;7.00;;
20124;SDS011;10223;50.862;4.360;2023-10-09T02:16:54;13.45;;;7.35;;
20124;SDS011;10223;50.862;4.360;2023-10-09T02:19:38;13.57;;;7.47;;
20124;SDS011;10223;50.862;4.360;2023-10-09T02:22:07;13.60;;;8.27;;
20124;SDS011;10223;50.862;4.360;2023-10-09T02:24:40;19.00;;;7.90;;
20124;SDS011;10223;50.862;4.360;2023-10-09T02:27:17;17.37;;;8.03;;
20124;SDS011;10223;50.862;4.360;2023-10-09T02:30:02;14.93;;;8.30;;
20124;SDS011;10223;50.862;4.360;2023-10-09T02:32:36;13.68;;;7.72;;
20124;SDS011;10223;50.862;4.360;2023-10-09T02:35:05;19.65;;;7.40;;
20124;SDS011;10223;50.862;4.360;2023-10-09T02:37:35;15.77;;;8.50;;
20124;SDS011;10223;50.862;4.360;2023-10-09T02:40:05;15.70;;;9.20;;
20124;SDS011;10223;50.862;4.360;2023-10-09T02:42:33;17.25;;;9.10;;
20124;SDS011;10223;50.862;4.360;2023-10-09T02:45:00;14.10;;;8.60;;
20124;SDS011;10223;50.862;4.360;2023-10-09T02:47:29;16.17;;;8.30;;
20124;SDS011;10223;50.862;4.360;2023-10-09T02:49:56;16.03;;;8.87;;
20124;SDS011;10223;50.862;4.360;2023-10-09T02:52:31;14.30;;;8.03;;
20124;SDS011;10223;50.862;4.360;2023-10-09T02:54:59;22.47;;;8.77;;
20124;SDS011;10223;50.862;4.360;2023-10-09T02:57:34;15.30;;;8.48;;
20124;SDS011;10223;50.862;4.360;2023-10-09T03:00:03;16.67;;;8.27;;
20124;SDS011;10223;50.862;4.360;2023-10-09T03:02:33;18.23;;;8.77;;
20124;SDS011;10223;50.862;4.360;2023-10-09T03:05:05;15.47;;;8.30;;
20124;SDS011;10223;50.862;4.360;2023-10-09T03:07:36;17.90;;;9.17;;
20124;SDS011;10223;50.862;4.360;2023-10-09T03:10:04;16.60;;;8.82;;
20124;SDS011;10223;50.862;4.360;2023-10-09T03:12:35;19.00;;;8.38;;
20124;SDS011;10223;50.862;4.360;2023-10-09T03:15:04;17.23;;;9.07;;
20124;SDS011;10223;50.862;4.360;2023-10-09T03:17:33;14.85;;;8.57;;
20124;SDS011;10223;50.862;4.360;2023-10-09T03:20:02;16.67;;;8.37;;
20124;SDS011;10223;50.862;4.360;2023-10-09T03:22:37;17.93;;;9.33;;
20124;SDS011;10223;50.862;4.360;2023-10-09T03:25:04;19.33;;;8.33;;
20124;SDS011;10223;50.862;4.360;2023-10-09T03:27:37;18.83;;;9.00;;
20124;SDS011;10223;50.862;4.360;2023-10-09T03:30:10;19.53;;;9.37;;
20124;SDS011;10223;50.862;4.360;2023-10-09T03:32:42;14.90;;;8.57;;
20124;SDS011;10223;50.862;4.360;2023-10-09T03:35:10;14.90;;;8.63;;
20124;SDS011;10223;50.862;4.360;2023-10-09T03:37:41;13.27;;;8.23;;
20124;SDS011;10223;50.862;4.360;2023-10-09T03:40:09;17.83;;;8.50;;
20124;SDS011;10223;50.862;4.360;2023-10-09T03:42:44;15.63;;;9.20;;
20124;SDS011;10223;50.862;4.360;2023-10-09T03:45:10;17.87;;;9.33;;
20124;SDS011;10223;50.862;4.360;2023-10-09T03:47:49;17.20;;;9.27;;
20124;SDS011;10223;50.862;4.360;2023-10-09T03:50:21;14.73;;;8.40;;
20124;SDS011;10223;50.862;4.360;2023-10-09T03:52:51;14.23;;;8.77;;
20124;SDS011;10223;50.862;4.360;2023-10-09T03:55:20;17.50;;;8.77;;
20124;SDS011;10223;50.862;4.360;2023-10-09T03:57:54;16.17;;;8.83;;
20124;SDS011;10223;50.862;4.360;2023-10-09T04:00:22;15.70;;;8.50;;
20124;SDS011;10223;50.862;4.360;2023-10-09T04:02:54;21.87;;;8.80;;
20124;SDS011;10223;50.862;4.360;2023-10-09T04:05:22;16.47;;;8.67;;
20124;SDS011;10223;50.862;4.360;2023-10-09T04:07:49;16.93;;;8.73;;
20124;SDS011;10223;50.862;4.360;2023-10-09T04:10:18;17.33;;;8.97;;
20124;SDS011;10223;50.862;4.360;2023-10-09T04:13:10;18.60;;;8.80;;
20124;SDS011;10223;50.862;4.360;2023-10-09T04:15:42;18.40;;;9.33;;
20124;SDS011;10223;50.862;4.360;2023-10-09T04:18:09;14.47;;;8.10;;
20124;SDS011;10223;50.862;4.360;2023-10-09T04:20:40;16.20;;;9.07;;
20124;SDS011;10223;50.862;4.360;2023-10-09T04:23:32;13.93;;;8.90;;
20124;SDS011;10223;50.862;4.360;2023-10-09T04:26:23;18.80;;;8.57;;
20124;SDS011;10223;50.862;4.360;2023-10-09T04:28:51;14.83;;;8.27;;
20124;SDS011;10223;50.862;4.360;2023-10-09T04:31:19;17.07;;;8.47;;
20124;SDS011;10223;50.862;4.360;2023-10-09T04:33:50;12.33;;;8.47;;
20124;SDS011;10223;50.862;4.360;2023-10-09T04:36:47;21.23;;;9.23;;
20124;SDS011;10223;50.862;4.360;2023-10-09T04:39:14;19.07;;;9.40;;
20124;SDS011;10223;50.862;4.360;2023-10-09T04:42:00;16.40;;;8.77;;
20124;SDS011;10223;50.862;4.360;2023-10-09T04:44:42;15.20;;;9.23;;
20124;SDS011;10223;50.862;4.360;2023-10-09T04:47:25;16.97;;;8.50;;
20124;SDS011;10223;50.862;4.360;2023-10-09T04:50:00;20.80;;;9.70;;
20124;SDS011;10223;50.862;4.360;2023-10-09T04:52:34;20.13;;;9.40;;
20124;SDS011;10223;50.862;4.360;2023-10-09T04:55:18;19.20;;;9.23;;
20124;SDS011;10223;50.862;4.360;2023-10-09T04:57:49;18.80;;;9.47;;
20124;SDS011;10223;50.862;4.360;2023-10-09T05:00:27;17.27;;;9.20;;
20124;SDS011;10223;50.862;4.360;2023-10-09T05:03:12;16.80;;;9.20;;
20124;SDS011;10223;50.862;4.360;2023-10-09T05:05:50;15.50;;;8.80;;
20124;SDS011;10223;50.862;4.360;2023-10-09T05:08:24;27.83;;;10.10;;
20124;SDS011;10223;50.862;4.360;2023-10-09T05:10:58;21.80;;;10.47;;
20124;SDS011;10223;50.862;4.360;2023-10-09T05:13:40;14.77;;;8.97;;
20124;SDS011;10223;50.862;4.360;2023-10-09T05:16:24;17.03;;;9.10;;
20124;SDS011;10223;50.862;4.360;2023-10-09T05:18:50;20.63;;;10.43;;
20124;SDS011;10223;50.862;4.360;2023-10-09T05:21:22;20.97;;;10.37;;
20124;SDS011;10223;50.862;4.360;2023-10-09T05:24:02;19.57;;;9.47;;
20124;SDS011;10223;50.862;4.360;2023-10-09T05:26:45;14.97;;;9.10;;
20124;SDS011;10223;50.862;4.360;2023-10-09T05:29:18;17.23;;;9.53;;
20124;SDS011;10223;50.862;4.360;2023-10-09T05:31:50;16.87;;;9.77;;
20124;SDS011;10223;50.862;4.360;2023-10-09T05:34:28;20.60;;;9.53;;
20124;SDS011;10223;50.862;4.360;2023-10-09T05:36:58;20.63;;;9.60;;
20124;SDS011;10223;50.862;4.360;2023-10-09T05:39:42;26.03;;;10.30;;
20124;SDS011;10223;50.862;4.360;2023-10-09T05:42:08;21.23;;;10.20;;
20124;SDS011;10223;50.862;4.360;2023-10-09T05:44:42;24.93;;;10.53;;
20124;SDS011;10223;50.862;4.360;2023-10-09T05:47:39;22.53;;;10.07;;
20124;SDS011;10223;50.862;4.360;2023-10-09T05:50:13;22.57;;;10.30;;
20124;SDS011;10223;50.862;4.360;2023-10-09T05:52:57;23.30;;;10.27;;
20124;SDS011;10223;50.862;4.360;2023-10-09T05:55:32;16.50;;;9.37;;
20124;SDS011;10223;50.862;4.360;2023-10-09T05:58:16;22.87;;;9.60;;
20124;SDS011;10223;50.862;4.360;2023-10-09T06:01:01;19.97;;;9.60;;
20124;SDS011;10223;50.862;4.360;2023-10-09T06:03:46;20.47;;;10.37;;
20124;SDS011;10223;50.862;4.360;2023-10-09T06:06:19;23.73;;;10.33;;
20124;SDS011;10223;50.862;4.360;2023-10-09T06:08:59;20.37;;;11.40;;
20124;SDS011;10223;50.862;4.360;2023-10-09T06:11:53;21.70;;;10.53;;
20124;SDS011;10223;50.862;4.360;2023-10-09T06:14:34;28.13;;;10.67;;
20124;SDS011;10223;50.862;4.360;2023-10-09T06:17:14;23.37;;;10.83;;
20124;SDS011;10223;50.862;4.360;2023-10-09T06:19:49;18.90;;;10.40;;
20124;SDS011;10223;50.862;4.360;2023-10-09T06:22:23;27.93;;;10.87;;
20124;SDS011;10223;50.862;4.360;2023-10-09T06:25:10;21.50;;;9.87;;
20124;SDS011;10223;50.862;4.360;2023-10-09T06:27:39;22.33;;;10.30;;
20124;SDS011;10223;50.862;4.360;2023-10-09T06:30:23;21.93;;;11.40;;
20124;SDS011;10223;50.862;4.360;2023-10-09T06:32:51;17.47;;;10.57;;
20124;SDS011;10223;50.862;4.360;2023-10-09T06:35:24;22.17;;;11.23;;
20124;SDS011;10223;50.862;4.360;2023-10-09T06:37:57;22.37;;;11.70;;
20124;SDS011;10223;50.862;4.360;2023-10-09T06:40:46;18.83;;;11.60;;
20124;SDS011;10223;50.862;4.360;2023-10-09T06:43:28;25.17;;;10.97;;
20124;SDS011;10223;50.862;4.360;2023-10-09T06:45:55;22.07;;;10.33;;
20124;SDS011;10223;50.862;4.360;2023-10-09T06:48:40;21.37;;;11.33;;
20124;SDS011;10223;50.862;4.360;2023-10-09T06:51:12;26.77;;;11.33;;
20124;SDS011;10223;50.862;4.360;2023-10-09T06:53:40;29.93;;;11.37;;
20124;SDS011;10223;50.862;4.360;2023-10-09T06:56:28;20.77;;;11.60;;
20124;SDS011;10223;50.862;4.360;2023-10-09T06:59:16;26.10;;;11.90;;
20124;SDS011;10223;50.862;4.360;2023-10-09T07:01:46;21.43;;;11.07;;
20124;SDS011;10223;50.862;4.360;2023-10-09T07:04:36;25.47;;;12.33;;
20124;SDS011;10223;50.862;4.360;2023-10-09T07:07:15;28.13;;;12.03;;
20124;SDS011;10223;50.862;4.360;2023-10-09T07:09:46;23.13;;;11.70;;
20124;SDS011;10223;50.862;4.360;2023-10-09T07:12:26;24.33;;;11.27;;
20124;SDS011;10223;50.862;4.360;2023-10-09T07:14:53;30.07;;;11.87;;
20124;SDS011;10223;50.862;4.360;2023-10-09T07:17:37;24.57;;;11.93;;
20124;SDS011;10223;50.862;4.360;2023-10-09T07:20:11;26.97;;;12.67;;
20124;SDS011;10223;50.862;4.360;2023-10-09T07:23:02;23.27;;;11.67;;
20124;SDS011;10223;50.862;4.360;2023-10-09T07:25:40;31.07;;;12.20;;
20124;SDS011;10223;50.862;4.360;2023-10-09T07:28:08;26.20;;;12.73;;
20124;SDS011;10223;50.862;4.360;2023-10-09T07:30:54;25.07;;;11.70;;
20124;SDS011;10223;50.862;4.360;2023-10-09T07:33:23;23.70;;;12.40;;
20124;SDS011;10223;50.862;4.360;2023-10-09T07:36:11;31.03;;;12.10;;
20124;SDS011;10223;50.862;4.360;2023-10-09T07:38:40;20.63;;;11.93;;
20124;SDS011;10223;50.862;4.360;2023-10-09T07:41:09;23.73;;;12.50;;
20124;SDS011;10223;50.862;4.360;2023-10-09T07:43:53;25.77;;;12.93;;
20124;SDS011;10223;50.862;4.360;2023-10-09T07:46:21;24.40;;;13.57;;
20124;SDS011;10223;50.862;4.360;2023-10-09T07:48:58;24.27;;;13.20;;
20124;SDS011;10223;50.862;4.360;2023-10-09T07:51:34;25.20;;;12.27;;
20124;SDS011;10223;50.862;4.360;2023-10-09T07:54:03;19.70;;;11.80;;
20124;SDS011;10223;50.862;4.360;2023-10-09T07:56:33;27.93;;;12.47;;
20124;SDS011;10223;50.862;4.360;2023-10-09T07:59:03;26.33;;;11.73;;
20124;SDS011;10223;50.862;4.360;2023-10-09T08:01:35;21.77;;;11.82;;
20124;SDS011;10223;50.862;4.360;2023-10-09T08:04:03;25.93;;;12.50;;
20124;SDS011;10223;50.862;4.360;2023-10-09T08:06:36;23.50;;;13.23;;
20124;SDS011;10223;50.862;4.360;2023-10-09T08:09:06;28.55;;;13.55;;
20124;SDS011;10223;50.862;4.360;2023-10-09T08:12:04;22.13;;;11.68;;
20124;SDS011;10223;50.862;4.360;2023-10-09T08:15:00;26.42;;;13.63;;
20124;SDS011;10223;50.862;4.360;2023-10-09T08:17:45;25.23;;;12.60;;
20124;SDS011;10223;50.862;4.360;2023-10-09T08:20:16;23.30;;;12.27;;
20124;SDS011;10223;50.862;4.360;2023-10-09T08:22:50;24.42;;;12.48;;
20124;SDS011;10223;50.862;4.360;2023-10-09T08:25:19;26.57;;;12.90;;
20124;SDS011;10223;50.862;4.360;2023-10-09T08:27:57;23.95;;;13.00;;
20124;SDS011;10223;50.862;4.360;2023-10-09T08:30:46;31.27;;;13.63;;
20124;SDS011;10223;50.862;4.360;2023-10-09T08:33:27;24.43;;;12.90;;
20124;SDS011;10223;50.862;4.360;2023-10-09T08:36:06;23.17;;;13.60;;
20124;SDS011;10223;50.862;4.360;2023-10-09T08:38:34;21.70;;;12.13;;
20124;SDS011;10223;50.862;4.360;2023-10-09T08:41:09;22.73;;;12.68;;
20124;SDS011;10223;50.862;4.360;2023-10-09T08:43:45;22.95;;;13.00;;
20124;SDS011;10223;50.862;4.360;2023-10-09T08:46:16;31.17;;;13.32;;
20124;SDS011;10223;50.862;4.360;2023-10-09T08:48:45;27.17;;;12.98;;
20124;SDS011;10223;50.862;4.360;2023-10-09T08:51:12;19.92;;;12.13;;
20124;SDS011;10223;50.862;4.360;2023-10-09T08:53:41;21.45;;;12.63;;
20124;SDS011;10223;50.862;4.360;2023-10-09T08:56:12;24.08;;;12.30;;
20124;SDS011;10223;50.862;4.360;2023-10-09T08:58:44;23.77;;;11.85;;
20124;SDS011;10223;50.862;4.360;2023-10-09T09:01:15;20.13;;;12.07;;
20124;SDS011;10223;50.862;4.360;2023-10-09T09:03:44;25.45;;;12.52;;
20124;SDS011;10223;50.862;4.360;2023-10-09T09:06:11;24.50;;;13.50;;
20124;SDS011;10223;50.862;4.360;2023-10-09T09:08:39;22.05;;;13.43;;
20124;SDS011;10223;50.862;4.360;2023-10-09T09:11:10;24.23;;;13.63;;
20124;SDS011;10223;50.862;4.360;2023-10-09T09:13:40;27.20;;;12.10;;
20124;SDS011;10223;50.862;4.360;2023-10-09T09:16:14;25.73;;;13.27;;
20124;SDS011;10223;50.862;4.360;2023-10-09T09:18:55;20.73;;;12.35;;
20124;SDS011;10223;50.862;4.360;2023-10-09T09:21:28;22.63;;;12.45;;
20124;SDS011;10223;50.862;4.360;2023-10-09T09:24:02;23.50;;;13.63;;
20124;SDS011;10223;50.862;4.360;2023-10-09T09:26:41;22.85;;;12.98;;
20124;SDS011;10223;50.862;4.360;2023-10-09T09:29:12;23.48;;;14.00;;
20124;SDS011;10223;50.862;4.360;2023-10-09T09:31:51;25.02;;;13.43;;
20124;SDS011;10223;50.862;4.360;2023-10-09T09:34:19;23.55;;;12.85;;
20124;SDS011;10223;50.862;4.360;2023-10-09T09:36:50;24.10;;;12.90;;
20124;SDS011;10223;50.862;4.360;2023-10-09T09:39:21;26.17;;;13.50;;
20124;SDS011;10223;50.862;4.360;2023-10-09T09:41:56;19.48;;;12.73;;
20124;SDS011;10223;50.862;4.360;2023-10-09T09:44:31;28.65;;;13.50;;
20124;SDS011;10223;50.862;4.360;2023-10-09T09:47:08;28.27;;;13.13;;
20124;SDS011;10223;50.862;4.360;2023-10-09T09:49:37;21.67;;;12.48;;
20124;SDS011;10223;50.862;4.360;2023-10-09T09:52:07;26.17;;;12.30;;
20124;SDS011;10223;50.862;4.360;2023-10-09T09:54:36;26.85;;;12.50;;
20124;SDS011;10223;50.862;4.360;2023-10-09T09:57:06;27.00;;;12.63;;
20124;SDS011;10223;50.862;4.360;2023-10-09T09:59:38;24.88;;;12.05;;
20124;SDS011;10223;50.862;4.360;2023-10-09T10:02:15;27.45;;;12.13;;
20124;SDS011;10223;50.862;4.360;2023-10-09T10:04:51;22.65;;;11.88;;
20124;SDS011;10223;50.862;4.360;2023-10-09T10:07:22;20.35;;;10.90;;
20124;SDS011;10223;50.862;4.360;2023-10-09T10:09:51;22.40;;;11.30;;
20124;SDS011;10223;50.862;4.360;2023-10-09T10:18:23;24.13;;;11.68;;
20124;SDS011;10223;50.862;4.360;2023-10-09T10:21:09;22.95;;;12.10;;
20124;SDS011;10223;50.862;4.360;2023-10-09T10:23:41;20.15;;;11.82;;
20124;SDS011;10223;50.862;4.360;2023-10-09T10:26:18;23.58;;;12.90;;
20124;SDS011;10223;50.862;4.360;2023-10-09T10:31:51;23.30;;;11.95;;
20124;SDS011;10223;50.862;4.360;2023-10-09T10:34:23;21.05;;;12.07;;
20124;SDS011;10223;50.862;4.360;2023-10-09T10:36:51;24.00;;;12.52;;
20124;SDS011;10223;50.862;4.360;2023-10-09T10:39:23;21.45;;;12.18;;
20124;SDS011;10223;50.862;4.360;2023-10-09T10:42:07;20.48;;;12.35;;
20124;SDS011;10223;50.862;4.360;2023-10-09T10:44:41;23.48;;;12.15;;
20124;SDS011;10223;50.862;4.360;2023-10-09T10:47:10;19.85;;;11.85;;
20124;SDS011;10223;50.862;4.360;2023-10-09T10:49:52;26.67;;;11.38;;
20124;SDS011;10223;50.862;4.360;2023-10-09T10:52:24;34.90;;;13.00;;
20124;SDS011;10223;50.862;4.360;2023-10-09T10:55:11;33.25;;;11.57;;
20124;SDS011;10223;50.862;4.360;2023-10-09T10:58:14;24.17;;;12.07;;
20124;SDS011;10223;50.862;4.360;2023-10-09T11:00:52;35.78;;;12.05;;
20124;SDS011;10223;50.862;4.360;2023-10-09T11:03:37;26.15;;;11.73;;
20124;SDS011;10223;50.862;4.360;2023-10-09T11:06:26;20.33;;;11.27;;
20124;SDS011;10223;50.862;4.360;2023-10-09T11:09:02;36.22;;;11.73;;
20124;SDS011;10223;50.862;4.360;2023-10-09T11:11:46;18.85;;;11.63;;
20124;SDS011;10223;50.862;4.360;2023-10-09T11:14:13;24.02;;;11.68;;
20124;SDS011;10223;50.862;4.360;2023-10-09T11:16:41;46.17;;;12.43;;
20124;SDS011;10223;50.862;4.360;2023-10-09T11:19:08;27.33;;;11.20;;
20124;SDS011;10223;50.862;4.360;2023-10-09T11:21:48;25.25;;;14.38;;
20124;SDS011;10223;50.862;4.360;2023-10-09T11:24:24;21.52;;;10.80;;
20124;SDS011;10223;50.862;4.360;2023-10-09T11:26:52;22.13;;;11.20;;
20124;SDS011;10223;50.862;4.360;2023-10-09T11:29:21;26.75;;;11.57;;
20124;SDS011;10223;50.862;4.360;2023-10-09T11:32:19;26.10;;;11.27;;
20124;SDS011;10223;50.862;4.360;2023-10-09T11:34:49;21.90;;;11.02;;
20124;SDS011;10223;50.862;4.360;2023-10-09T11:37:20;39.63;;;12.27;;
20124;SDS011;10223;50.862;4.360;2023-10-09T11:40:03;21.98;;;10.80;;
20124;SDS011;10223;50.862;4.360;2023-10-09T11:42:48;24.45;;;10.98;;
20124;SDS011;10223;50.862;4.360;2023-10-09T11:45:21;18.88;;;11.27;;
20124;SDS011;10223;50.862;4.360;2023-10-09T11:47:51;28.70;;;11.07;;
20124;SDS011;10223;50.862;4.360;2023-10-09T11:50:38;22.90;;;10.70;;
20124;SDS011;10223;50.862;4.360;2023-10-09T11:53:08;28.58;;;10.75;;
20124;SDS011;10223;50.862;4.360;2023-10-09T11:55:42;21.65;;;8.95;;
20124;SDS011;10223;50.862;4.360;2023-10-09T11:58:13;20.50;;;10.55;;
20124;SDS011;10223;50.862;4.360;2023-10-09T12:00:47;26.92;;;10.57;;
20124;SDS011;10223;50.862;4.360;2023-10-09T12:03:24;28.02;;;10.27;;
20124;SDS011;10223;50.862;4.360;2023-10-09T12:05:53;26.80;;;11.10;;
20124;SDS011;10223;50.862;4.360;2023-10-09T12:08:21;20.55;;;10.82;;
20124;SDS011;10223;50.862;4.360;2023-10-09T12:10:51;26.95;;;10.32;;
20124;SDS011;10223;50.862;4.360;2023-10-09T12:13:21;23.40;;;10.20;;
20124;SDS011;10223;50.862;4.360;2023-10-09T12:15:48;18.90;;;9.88;;
20124;SDS011;10223;50.862;4.360;2023-10-09T12:18:17;18.67;;;10.35;;
20124;SDS011;10223;50.862;4.360;2023-10-09T12:20:45;15.15;;;9.10;;
20124;SDS011;10223;50.862;4.360;2023-10-09T12:23:16;22.23;;;10.43;;
20124;SDS011;10223;50.862;4.360;2023-10-09T12:25:43;21.02;;;10.90;;
20124;SDS011;10223;50.862;4.360;2023-10-09T12:28:11;21.40;;;10.23;;
20124;SDS011;10223;50.862;4.360;2023-10-09T12:30:38;18.95;;;9.63;;
20124;SDS011;10223;50.862;4.360;2023-10-09T12:33:06;24.92;;;10.35;;
20124;SDS011;10223;50.862;4.360;2023-10-09T12:35:36;18.17;;;8.88;;
20124;SDS011;10223;50.862;4.360;2023-10-09T12:38:06;20.73;;;10.18;;
20124;SDS011;10223;50.862;4.360;2023-10-09T12:40:37;16.88;;;9.27;;
20124;SDS011;10223;50.862;4.360;2023-10-09T12:43:06;21.67;;;9.60;;
20124;SDS011;10223;50.862;4.360;2023-10-09T12:45:40;20.63;;;9.60;;
20124;SDS011;10223;50.862;4.360;2023-10-09T12:48:07;19.95;;;9.45;;
20124;SDS011;10223;50.862;4.360;2023-10-09T12:50:34;20.42;;;9.93;;
20124;SDS011;10223;50.862;4.360;2023-10-09T12:53:08;25.63;;;10.73;;
20124;SDS011;10223;50.862;4.360;2023-10-09T12:55:35;20.30;;;9.75;;
20124;SDS011;10223;50.862;4.360;2023-10-09T12:58:05;15.50;;;9.80;;
20124;SDS011;10223;50.862;4.360;2023-10-09T13:00:33;22.42;;;9.63;;
20124;SDS011;10223;50.862;4.360;2023-10-09T13:03:03;19.25;;;10.10;;
20124;SDS011;10223;50.862;4.360;2023-10-09T13:05:41;21.00;;;9.73;;
20124;SDS011;10223;50.862;4.360;2023-10-09T13:08:18;19.15;;;9.48;;
20124;SDS011;10223;50.862;4.360;2023-10-09T13:10:47;21.70;;;9.48;;
20124;SDS011;10223;50.862;4.360;2023-10-09T13:13:23;23.08;;;9.23;;
20124;SDS011;10223;50.862;4.360;2023-10-09T13:16:05;18.88;;;9.50;;
20124;SDS011;10223;50.862;4.360;2023-10-09T13:18:33;23.70;;;9.27;;
20124;SDS011;10223;50.862;4.360;2023-10-09T13:21:00;17.25;;;8.70;;
20124;SDS011;10223;50.862;4.360;2023-10-09T13:23:30;20.35;;;9.45;;
20124;SDS011;10223;50.862;4.360;2023-10-09T13:26:04;17.42;;;8.85;;
20124;SDS011;10223;50.862;4.360;2023-10-09T13:28:42;22.13;;;9.80;;
20124;SDS011;10223;50.862;4.360;2023-10-09T13:31:13;21.17;;;9.13;;
20124;SDS011;10223;50.862;4.360;2023-10-09T13:33:40;19.55;;;9.13;;
20124;SDS011;10223;50.862;4.360;2023-10-09T13:36:07;16.80;;;8.77;;
20124;SDS011;10223;50.862;4.360;2023-10-09T13:38:43;21.05;;;10.77;;
20124;SDS011;10223;50.862;4.360;2023-10-09T13:41:10;18.02;;;11.50;;
20124;SDS011;10223;50.862;4.360;2023-10-09T13:43:39;16.98;;;9.18;;
20124;SDS011;10223;50.862;4.360;2023-10-09T13:46:07;20.13;;;10.10;;
20124;SDS011;10223;50.862;4.360;2023-10-09T13:48:34;16.80;;;9.10;;
20124;SDS011;10223;50.862;4.360;2023-10-09T13:51:03;19.35;;;9.57;;
20124;SDS011;10223;50.862;4.360;2023-10-09T13:53:32;20.17;;;10.30;;
20124;SDS011;10223;50.862;4.360;2023-10-09T13:56:02;21.35;;;9.90;;
20124;SDS011;10223;50.862;4.360;2023-10-09T13:58:31;21.02;;;10.25;;
20124;SDS011;10223;50.862;4.360;2023-10-09T14:00:59;19.65;;;10.68;;
20124;SDS011;10223;50.862;4.360;2023-10-09T14:03:26;15.02;;;9.75;;
20124;SDS011;10223;50.862;4.360;2023-10-09T14:05:54;21.02;;;9.73;;
20124;SDS011;10223;50.862;4.360;2023-10-09T14:08:22;17.20;;;10.68;;
20124;SDS011;10223;50.862;4.360;2023-10-09T14:10:51;18.52;;;9.25;;
20124;SDS011;10223;50.862;4.360;2023-10-09T14:13:20;21.45;;;9.55;;
20124;SDS011;10223;50.862;4.360;2023-10-09T14:15:53;17.42;;;10.35;;
20124;SDS011;10223;50.862;4.360;2023-10-09T14:18:21;17.70;;;9.40;;
20124;SDS011;10223;50.862;4.360;2023-10-09T14:20:48;14.90;;;9.55;;
20124;SDS011;10223;50.862;4.360;2023-10-09T14:23:17;17.05;;;9.70;;
20124;SDS011;10223;50.862;4.360;2023-10-09T14:25:46;22.83;;;11.43;;
20124;SDS011;10223;50.862;4.360;2023-10-09T14:28:15;18.50;;;9.85;;
20124;SDS011;10223;50.862;4.360;2023-10-09T14:30:45;17.60;;;10.82;;
20124;SDS011;10223;50.862;4.360;2023-10-09T14:33:19;18.55;;;10.38;;
20124;SDS011;10223;50.862;4.360;2023-10-09T14:35:48;20.50;;;10.43;;
20124;SDS011;10223;50.862;4.360;2023-10-09T14:38:17;18.23;;;10.32;;
20124;SDS011;10223;50.862;4.360;2023-10-09T14:40:51;23.70;;;10.25;;
20124;SDS011;10223;50.862;4.360;2023-10-09T14:43:22;22.77;;;10.98;;
20124;SDS011;10223;50.862;4.360;2023-10-09T14:45:54;22.27;;;10.90;;
20124;SDS011;10223;50.862;4.360;2023-10-09T14:48:22;21.63;;;11.05;;
20124;SDS011;10223;50.862;4.360;2023-10-09T14:50:52;23.08;;;11.48;;
20124;SDS011;10223;50.862;4.360;2023-10-09T14:53:19;18.55;;;10.82;;
20124;SDS011;10223;50.862;4.360;2023-10-09T14:55:46;21.70;;;10.07;;
20124;SDS011;10223;50.862;4.360;2023-10-09T14:58:19;24.58;;;11.07;;
20124;SDS011;10223;50.862;4.360;2023-10-09T15:00:49;22.35;;;10.68;;
20124;SDS011;10223;50.862;4.360;2023-10-09T15:03:18;23.23;;;11.02;;
20124;SDS011;10223;50.862;4.360;2023-10-09T15:05:45;25.05;;;11.55;;
20124;SDS011;10223;50.862;4.360;2023-10-09T15:08:12;21.55;;;13.00;;
20124;SDS011;10223;50.862;4.360;2023-10-09T15:10:45;24.27;;;11.55;;
20124;SDS011;10223;50.862;4.360;2023-10-09T15:13:13;23.92;;;11.07;;
20124;SDS011;10223;50.862;4.360;2023-10-09T15:15:41;19.27;;;10.13;;